createdAt,value
2019-03-30T00:00:17.886Z,85.23
2019-03-30T00:02:46.141Z,90.97
2019-03-30T00:05:14.392Z,87.83
2019-03-30T00:07:42.652Z,88.17
2019-03-30T00:10:11.242Z,87.57
2019-03-30T00:12:39.484Z,100.33
2019-03-30T00:15:08.843Z,91.93
2019-03-30T00:17:37.093Z,86.43
2019-03-30T00:20:10.063Z,91.07
2019-03-30T00:22:55.235Z,95.70
2019-03-30T00:25:16.159Z,88.50
2019-03-30T00:27:49.400Z,81.57
2019-03-30T00:30:22.737Z,87.33
2019-03-30T00:32:59.502Z,84.63
2019-03-30T00:35:32.311Z,93.80
2019-03-30T00:38:05.947Z,88.47
2019-03-30T00:40:38.804Z,87.47
2019-03-30T00:43:07.083Z,89.37
2019-03-30T00:45:36.955Z,90.53
2019-03-30T00:48:08.963Z,85.50
2019-03-30T00:50:39.403Z,87.57
2019-03-30T00:53:11.920Z,80.80
2019-03-30T00:55:42.878Z,89.70
2019-03-30T00:58:11.244Z,94.30
2019-03-30T01:00:39.490Z,81.03
2019-03-30T01:03:09.377Z,83.07
2019-03-30T01:05:37.719Z,83.53
2019-03-30T01:08:05.964Z,80.80
2019-03-30T01:10:34.203Z,81.97
2019-03-30T01:13:02.502Z,84.60
2019-03-30T01:15:30.758Z,74.67
2019-03-30T01:17:59.007Z,85.20
2019-03-30T01:20:27.849Z,98.77
2019-03-30T01:22:56.090Z,84.33
2019-03-30T01:25:24.331Z,86.03
2019-03-30T01:27:52.583Z,87.17
2019-03-30T01:30:23.307Z,77.17
2019-03-30T01:32:50.804Z,71.77
2019-03-30T01:35:19.196Z,83.43
2019-03-30T01:37:51.273Z,86.50
2019-03-30T01:40:19.510Z,92.90
2019-03-30T01:42:48.321Z,85.40
2019-03-30T01:45:16.652Z,97.30
2019-03-30T01:47:44.895Z,75.00
2019-03-30T01:50:17.489Z,78.07
2019-03-30T01:52:43.227Z,74.37
2019-03-30T01:55:11.527Z,70.57
2019-03-30T01:57:40.120Z,66.73
2019-03-30T02:00:09.800Z,68.27
2019-03-30T02:02:38.038Z,69.63
2019-03-30T02:05:06.682Z,84.37
2019-03-30T02:07:34.920Z,75.10
2019-03-30T02:10:03.559Z,68.03
2019-03-30T02:12:31.815Z,76.40
2019-03-30T02:15:00.091Z,71.60
2019-03-30T02:17:28.371Z,76.70
2019-03-30T02:19:57.610Z,78.20
2019-03-30T02:22:25.860Z,76.57
2019-03-30T02:24:54.116Z,69.80
2019-03-30T02:27:22.447Z,80.20
2019-03-30T02:29:50.687Z,67.93
2019-03-30T02:32:18.927Z,77.83
2019-03-30T02:34:47.185Z,65.57
2019-03-30T02:37:15.460Z,68.50
2019-03-30T02:39:44.299Z,70.00
2019-03-30T02:42:12.647Z,70.60
2019-03-30T02:44:40.898Z,84.40
2019-03-30T02:47:09.154Z,84.93
2019-03-30T02:49:37.413Z,80.63
2019-03-30T02:52:05.685Z,66.20
2019-03-30T02:54:33.996Z,72.37
2019-03-30T02:57:02.680Z,78.87
2019-03-30T02:59:30.951Z,71.43
2019-03-30T03:01:59.175Z,87.47
2019-03-30T03:04:27.512Z,73.30
2019-03-30T03:06:55.775Z,69.00
2019-03-30T03:09:24.003Z,75.00
2019-03-30T03:11:52.640Z,83.03
2019-03-30T03:14:20.886Z,73.67
2019-03-30T03:16:49.129Z,77.07
2019-03-30T03:19:17.653Z,78.63
2019-03-30T03:21:45.911Z,74.07
2019-03-30T03:24:14.155Z,91.53
2019-03-30T03:26:42.430Z,68.33
2019-03-30T03:29:10.681Z,73.73
2019-03-30T03:31:38.932Z,67.03
2019-03-30T03:34:07.202Z,63.80
2019-03-30T03:36:35.455Z,70.30
2019-03-30T03:39:05.133Z,73.17
2019-03-30T03:41:33.607Z,66.73
2019-03-30T03:44:01.856Z,68.40
2019-03-30T03:46:30.090Z,63.20
2019-03-30T03:48:58.833Z,69.33
2019-03-30T03:51:27.084Z,69.97
2019-03-30T03:53:55.318Z,87.67
2019-03-30T03:56:23.953Z,83.93
2019-03-30T03:58:52.186Z,75.10
2019-03-30T04:01:20.690Z,68.90
2019-03-30T04:03:48.956Z,72.97
2019-03-30T04:06:17.224Z,79.93
2019-03-30T04:08:45.529Z,73.57
2019-03-30T04:11:14.161Z,63.50
2019-03-30T04:13:42.412Z,65.57
2019-03-30T04:16:10.640Z,68.93
2019-03-30T04:18:38.899Z,72.20
2019-03-30T04:21:07.145Z,68.27
2019-03-30T04:23:35.385Z,68.20
2019-03-30T04:26:03.827Z,74.50
2019-03-30T04:28:32.075Z,75.10
2019-03-30T04:31:00.360Z,75.50
2019-03-30T04:33:28.834Z,66.20
2019-03-30T04:35:57.075Z,87.13
2019-03-30T04:38:25.318Z,80.93
2019-03-30T04:40:53.575Z,69.30
2019-03-30T04:43:24.365Z,69.73
2019-03-30T04:45:52.607Z,65.03
2019-03-30T04:48:20.879Z,69.57
2019-03-30T04:50:49.115Z,66.90
2019-03-30T04:53:17.355Z,65.83
2019-03-30T04:55:45.622Z,65.83
2019-03-30T04:58:13.871Z,69.13
2019-03-30T05:00:42.107Z,64.47
2019-03-30T05:03:10.410Z,64.83
2019-03-30T05:05:38.648Z,62.43
2019-03-30T05:08:06.890Z,74.53
2019-03-30T05:10:36.056Z,68.07
2019-03-30T05:13:04.304Z,60.60
2019-03-30T05:15:32.546Z,65.57
2019-03-30T05:18:00.901Z,65.57
2019-03-30T05:20:29.139Z,67.67
2019-03-30T05:22:57.467Z,65.50
2019-03-30T05:25:25.731Z,69.97
2019-03-30T05:27:53.974Z,102.93
2019-03-30T05:30:22.228Z,77.97
2019-03-30T05:33:04.613Z,77.67
2019-03-30T05:35:20.719Z,92.40
2019-03-30T05:37:48.971Z,75.77
2019-03-30T05:40:17.223Z,66.97
2019-03-30T05:42:45.463Z,68.43
2019-03-30T05:45:14.101Z,69.10
2019-03-30T05:47:42.390Z,61.67
2019-03-30T05:50:11.007Z,67.07
2019-03-30T05:52:39.279Z,65.10
2019-03-30T05:55:07.562Z,70.57
2019-03-30T05:57:35.802Z,67.73
2019-03-30T06:00:06.954Z,64.17
2019-03-30T06:02:35.559Z,55.43
2019-03-30T06:05:04.170Z,55.27
2019-03-30T06:07:32.413Z,59.10
2019-03-30T06:10:00.754Z,56.67
2019-03-30T06:12:29.007Z,71.77
2019-03-30T06:14:57.250Z,55.30
2019-03-30T06:17:25.524Z,60.37
2019-03-30T06:19:53.780Z,46.43
2019-03-30T06:22:22.033Z,52.87
2019-03-30T06:24:53.453Z,51.13
2019-03-30T06:27:26.098Z,52.57
2019-03-30T06:30:17.489Z,46.77
2019-03-30T06:32:45.720Z,50.27
2019-03-30T06:35:14.018Z,52.57
2019-03-30T06:37:42.692Z,44.37
2019-03-30T06:40:10.931Z,46.87
2019-03-30T06:42:39.524Z,48.07
2019-03-30T06:45:07.857Z,45.37
2019-03-30T06:47:36.250Z,41.03
2019-03-30T06:50:06.396Z,65.90
2019-03-30T06:52:34.852Z,46.40
2019-03-30T06:55:03.828Z,45.03
2019-03-30T06:57:32.115Z,39.53
2019-03-30T07:00:00.855Z,49.57
2019-03-30T07:02:29.095Z,40.53
2019-03-30T07:04:57.346Z,41.70
2019-03-30T07:07:25.684Z,45.70
2019-03-30T07:09:56.695Z,38.37
2019-03-30T07:12:25.278Z,42.50
2019-03-30T07:14:53.826Z,42.07
2019-03-30T07:17:22.114Z,39.53
2019-03-30T07:19:50.783Z,37.27
2019-03-30T07:22:19.548Z,34.57
2019-03-30T07:24:47.791Z,34.83
2019-03-30T07:27:16.053Z,28.43
2019-03-30T07:29:44.383Z,41.57
2019-03-30T07:32:12.628Z,44.50
2019-03-30T07:34:44.259Z,42.50
2019-03-30T07:37:12.560Z,38.33
2019-03-30T07:39:40.815Z,40.23
2019-03-30T07:42:09.069Z,34.90
2019-03-30T07:44:37.332Z,35.03
2019-03-30T07:47:05.592Z,38.97
2019-03-30T07:49:34.000Z,33.53
2019-03-30T07:52:06.836Z,34.83
2019-03-30T07:54:35.091Z,32.20
2019-03-30T07:57:07.092Z,42.20
2019-03-30T07:59:33.614Z,32.07
2019-03-30T08:02:01.855Z,38.63
2019-03-30T08:04:30.452Z,42.30
2019-03-30T08:06:58.852Z,36.80
2019-03-30T08:09:27.422Z,33.53
2019-03-30T08:11:55.678Z,36.40
2019-03-30T08:14:23.973Z,41.40
2019-03-30T08:16:52.225Z,35.73
2019-03-30T08:19:21.856Z,36.77
2019-03-30T08:21:50.673Z,43.13
2019-03-30T08:24:18.994Z,37.63
2019-03-30T08:26:47.256Z,43.53
2019-03-30T08:29:15.555Z,37.20
2019-03-30T08:31:43.814Z,42.70
2019-03-30T08:34:12.094Z,38.17
2019-03-30T08:36:40.447Z,36.57
2019-03-30T08:39:08.699Z,40.10
2019-03-30T08:41:36.951Z,36.47
2019-03-30T08:44:05.303Z,37.77
2019-03-30T08:46:34.207Z,33.20
2019-03-30T08:49:02.787Z,35.97
2019-03-30T08:51:31.699Z,30.47
2019-03-30T08:53:59.942Z,31.30
2019-03-30T08:56:28.291Z,27.27
2019-03-30T08:58:57.985Z,31.43
2019-03-30T09:01:27.027Z,37.27
2019-03-30T09:03:55.271Z,30.10
2019-03-30T09:06:23.639Z,35.13
2019-03-30T09:08:52.194Z,47.47
2019-03-30T09:11:20.512Z,34.03
2019-03-30T09:13:48.825Z,35.10
2019-03-30T09:16:17.062Z,33.40
2019-03-30T09:18:45.338Z,37.93
2019-03-30T09:21:13.972Z,28.47
2019-03-30T09:23:43.994Z,29.07
2019-03-30T09:26:12.242Z,27.63
2019-03-30T09:28:40.643Z,31.43
2019-03-30T09:31:08.879Z,30.83
2019-03-30T09:33:37.155Z,34.50
2019-03-30T09:36:08.615Z,36.03
2019-03-30T09:38:49.012Z,33.80
2019-03-30T09:41:19.795Z,30.63
2019-03-30T09:43:48.059Z,34.73
2019-03-30T09:46:16.309Z,29.03
2019-03-30T09:48:44.692Z,34.00
2019-03-30T09:51:12.927Z,35.60
2019-03-30T09:53:44.453Z,32.27
2019-03-30T09:56:12.975Z,32.43
2019-03-30T09:58:41.255Z,31.97
2019-03-30T10:01:09.506Z,31.60
2019-03-30T10:03:42.162Z,33.80
2019-03-30T10:06:10.390Z,34.47
2019-03-30T10:08:38.650Z,26.33
2019-03-30T10:11:08.189Z,23.00
2019-03-30T10:13:36.406Z,30.40
2019-03-30T10:16:04.707Z,31.30
2019-03-30T10:18:33.109Z,33.70
2019-03-30T10:21:01.397Z,35.77
2019-03-30T10:23:29.639Z,37.17
2019-03-30T10:25:59.042Z,36.00
2019-03-30T10:28:27.298Z,32.00
2019-03-30T10:30:55.596Z,34.87
2019-03-30T10:33:23.894Z,35.47
2019-03-30T10:35:52.147Z,35.07
2019-03-30T10:38:20.408Z,36.53
2019-03-30T10:40:48.675Z,30.93
2019-03-30T10:43:16.937Z,36.63
2019-03-30T10:45:45.180Z,33.60
2019-03-30T10:48:13.760Z,35.07
2019-03-30T10:50:43.663Z,35.77
2019-03-30T10:53:11.883Z,33.73
2019-03-30T10:55:40.543Z,36.77
2019-03-30T10:58:08.823Z,31.33
2019-03-30T11:00:38.717Z,30.43
2019-03-30T11:03:07.426Z,28.87
2019-03-30T11:05:35.690Z,35.10
2019-03-30T11:08:04.283Z,33.33
2019-03-30T11:10:32.598Z,35.77
2019-03-30T11:13:00.949Z,37.60
2019-03-30T11:15:29.204Z,37.40
2019-03-30T11:17:57.465Z,34.83
2019-03-30T11:20:25.735Z,35.73
2019-03-30T11:22:53.963Z,36.57
2019-03-30T11:25:24.603Z,37.10
2019-03-30T11:27:54.476Z,36.70
2019-03-30T11:30:22.744Z,35.13
2019-03-30T11:32:51.078Z,31.67
2019-03-30T11:35:19.370Z,31.13
2019-03-30T11:37:47.737Z,28.17
2019-03-30T11:40:16.025Z,34.83
2019-03-30T11:42:44.272Z,30.07
2019-03-30T11:45:12.828Z,31.63
2019-03-30T11:47:41.193Z,23.43
2019-03-30T11:50:09.423Z,28.87
2019-03-30T11:52:37.671Z,26.73
2019-03-30T11:55:20.530Z,30.37
2019-03-30T11:57:37.430Z,27.13
2019-03-30T12:00:06.512Z,27.43
2019-03-30T12:02:35.171Z,27.37
2019-03-30T12:05:04.437Z,26.63
2019-03-30T12:07:37.199Z,27.10
2019-03-30T12:10:06.015Z,23.17
2019-03-30T12:12:37.195Z,25.40
2019-03-30T12:15:08.074Z,24.87
2019-03-30T12:17:36.676Z,23.20
2019-03-30T12:20:12.260Z,26.87
2019-03-30T12:22:40.511Z,26.70
2019-03-30T12:25:08.766Z,25.00
2019-03-30T12:27:37.280Z,24.93
2019-03-30T12:30:09.949Z,28.00
2019-03-30T12:32:38.351Z,51.20
2019-03-30T12:35:07.070Z,22.90
2019-03-30T12:37:35.723Z,23.17
2019-03-30T12:40:06.960Z,22.67
2019-03-30T12:42:35.205Z,22.70
2019-03-30T12:45:05.004Z,20.07
2019-03-30T12:47:33.263Z,19.03
2019-03-30T12:50:06.005Z,21.47
2019-03-30T12:52:34.312Z,22.37
2019-03-30T12:55:02.670Z,18.50
2019-03-30T12:57:30.925Z,18.50
2019-03-30T13:00:02.478Z,19.83
2019-03-30T13:02:30.744Z,21.00
2019-03-30T13:04:58.996Z,15.67
2019-03-30T13:07:27.240Z,14.20
2019-03-30T13:09:56.616Z,17.63
2019-03-30T13:12:24.881Z,16.55
2019-03-30T13:14:57.748Z,11.95
2019-03-30T13:17:30.013Z,15.00
2019-03-30T13:19:58.872Z,19.98
2019-03-30T13:22:27.731Z,18.82
2019-03-30T13:24:56.016Z,13.68
2019-03-30T13:27:24.269Z,15.03
2019-03-30T13:29:58.791Z,12.63
2019-03-30T13:32:27.103Z,13.55
2019-03-30T13:34:55.943Z,15.65
2019-03-30T13:37:26.903Z,11.65
2019-03-30T13:39:56.102Z,13.93
2019-03-30T13:42:24.968Z,12.73
2019-03-30T13:44:53.824Z,15.58
2019-03-30T13:47:27.344Z,14.58
2019-03-30T13:49:56.448Z,12.93
2019-03-30T13:52:24.696Z,17.37
2019-03-30T13:54:54.803Z,15.10
2019-03-30T13:57:27.957Z,14.23
2019-03-30T13:59:56.206Z,15.15
2019-03-30T14:02:24.783Z,17.20
2019-03-30T14:04:56.149Z,17.90
2019-03-30T14:07:24.389Z,17.47
2019-03-30T14:09:52.732Z,16.57
2019-03-30T14:12:21.010Z,16.80
2019-03-30T14:14:58.085Z,15.60
2019-03-30T14:17:31.197Z,13.70
2019-03-30T14:19:59.507Z,17.10
2019-03-30T14:22:27.736Z,14.17
2019-03-30T14:25:00.420Z,13.97
2019-03-30T14:27:31.710Z,14.80
2019-03-30T14:30:00.439Z,13.75
2019-03-30T14:32:28.807Z,11.37
2019-03-30T14:34:57.071Z,11.35
2019-03-30T14:37:25.910Z,17.45
2019-03-30T14:39:54.246Z,35.65
2019-03-30T14:42:23.096Z,12.85
2019-03-30T14:44:51.323Z,13.95
2019-03-30T14:47:20.191Z,15.43
2019-03-30T14:49:48.450Z,14.30
2019-03-30T14:52:16.690Z,17.75
2019-03-30T14:54:52.713Z,13.43
2019-03-30T14:57:14.992Z,13.88
2019-03-30T14:59:43.312Z,12.43
2019-03-30T15:02:12.198Z,10.85
2019-03-30T15:04:41.358Z,14.83
2019-03-30T15:07:09.603Z,14.38
2019-03-30T15:09:37.955Z,15.87
2019-03-30T15:12:06.200Z,15.07
2019-03-30T15:14:34.446Z,14.97
2019-03-30T15:17:02.871Z,15.13
2019-03-30T15:19:31.169Z,16.83
2019-03-30T15:22:01.039Z,10.97
2019-03-30T15:24:32.453Z,14.90
2019-03-30T15:27:00.771Z,10.23
2019-03-30T15:29:29.143Z,13.77
2019-03-30T15:31:57.472Z,10.68
2019-03-30T15:34:26.293Z,13.70
2019-03-30T15:36:54.549Z,14.53
2019-03-30T15:39:27.722Z,12.85
2019-03-30T15:42:08.335Z,13.85
2019-03-30T15:44:36.640Z,15.30
2019-03-30T15:47:05.500Z,16.37
2019-03-30T15:49:36.871Z,12.73
2019-03-30T15:52:14.017Z,16.77
2019-03-30T15:54:43.418Z,15.23
2019-03-30T15:57:14.171Z,16.83
2019-03-30T15:59:41.669Z,12.53
2019-03-30T16:02:09.922Z,16.60
2019-03-30T16:04:38.179Z,15.43
2019-03-30T16:07:10.167Z,13.87
2019-03-30T16:09:38.482Z,20.13
2019-03-30T16:12:06.762Z,16.93
2019-03-30T16:14:36.647Z,22.73
2019-03-30T16:17:05.455Z,19.23
2019-03-30T16:19:33.712Z,17.83
2019-03-30T16:22:02.041Z,17.10
2019-03-30T16:24:38.458Z,17.97
2019-03-30T16:27:06.710Z,18.80
2019-03-30T16:29:36.559Z,16.20
2019-03-30T16:32:04.887Z,17.63
2019-03-30T16:34:33.427Z,18.30
2019-03-30T16:37:01.663Z,16.37
2019-03-30T16:39:30.415Z,20.10
2019-03-30T16:41:58.676Z,23.47
2019-03-30T16:44:26.928Z,17.20
2019-03-30T16:46:57.434Z,18.97
2019-03-30T16:49:25.288Z,19.67
2019-03-30T16:51:54.748Z,20.37
2019-03-30T16:54:24.827Z,17.17
2019-03-30T16:56:53.055Z,16.20
2019-03-30T16:59:21.312Z,18.23
2019-03-30T17:01:49.682Z,17.50
2019-03-30T17:04:17.993Z,15.37
2019-03-30T17:06:46.241Z,16.40
2019-03-30T17:09:15.330Z,15.83
2019-03-30T17:11:43.613Z,15.73
2019-03-30T17:14:11.941Z,13.60
2019-03-30T17:16:40.564Z,17.93
2019-03-30T17:19:08.830Z,18.47
2019-03-30T17:21:37.068Z,16.47
2019-03-30T17:24:05.431Z,14.53
2019-03-30T17:26:33.692Z,14.17
2019-03-30T17:29:01.938Z,17.70
2019-03-30T17:31:30.639Z,18.70
2019-03-30T17:33:58.877Z,20.57
2019-03-30T17:36:27.122Z,21.03
2019-03-30T17:38:56.900Z,27.50
2019-03-30T17:41:25.123Z,36.50
2019-03-30T17:43:53.401Z,42.77
2019-03-30T17:46:32.267Z,59.23
2019-03-30T17:49:00.565Z,52.90
2019-03-30T17:51:28.815Z,71.90
2019-03-30T17:53:57.096Z,64.83
2019-03-30T17:56:25.350Z,61.50
2019-03-30T17:58:53.840Z,62.87
2019-03-30T18:01:22.151Z,68.53
2019-03-30T18:03:52.363Z,70.37
2019-03-30T18:06:22.996Z,74.97
2019-03-30T18:08:51.318Z,70.90
2019-03-30T18:11:21.335Z,77.57
2019-03-30T18:13:49.626Z,73.40
2019-03-30T18:16:17.958Z,64.30
2019-03-30T18:18:46.234Z,73.97
2019-03-30T18:21:14.483Z,78.13
2019-03-30T18:23:43.391Z,74.73
2019-03-30T18:26:11.657Z,74.70
2019-03-30T18:28:39.906Z,92.03
2019-03-30T18:31:08.495Z,77.27
2019-03-30T18:33:36.738Z,87.20
2019-03-30T18:36:05.039Z,89.77
2019-03-30T18:38:36.463Z,98.37
2019-03-30T18:41:03.544Z,89.77
2019-03-30T18:43:31.787Z,85.57
2019-03-30T18:46:00.071Z,90.87
2019-03-30T18:48:28.323Z,78.33
2019-03-30T18:50:56.565Z,80.90
2019-03-30T18:53:25.155Z,84.73
2019-03-30T18:55:53.412Z,82.47
2019-03-30T18:58:21.659Z,84.00
2019-03-30T19:00:50.721Z,81.57
2019-03-30T19:03:20.279Z,89.20
2019-03-30T19:05:48.707Z,97.33
2019-03-30T19:08:17.004Z,91.90
2019-03-30T19:10:45.533Z,95.97
2019-03-30T19:13:13.779Z,108.77
2019-03-30T19:15:42.046Z,105.63
2019-03-30T19:18:10.342Z,102.43
2019-03-30T19:20:38.862Z,102.80
2019-03-30T19:23:07.449Z,133.10
2019-03-30T19:25:35.703Z,125.10
2019-03-30T19:28:04.321Z,126.93
2019-03-30T19:30:32.727Z,125.20
2019-03-30T19:33:01.046Z,134.03
2019-03-30T19:35:32.323Z,131.93
2019-03-30T19:38:00.935Z,124.27
2019-03-30T19:40:29.183Z,136.33
2019-03-30T19:43:07.790Z,141.57
2019-03-30T19:45:36.143Z,118.60
2019-03-30T19:48:06.038Z,125.70
2019-03-30T19:50:34.635Z,135.97
2019-03-30T19:53:03.232Z,133.57
2019-03-30T19:55:31.479Z,117.57
2019-03-30T19:57:59.740Z,124.23
2019-03-30T20:00:28.452Z,107.20
2019-03-30T20:02:56.771Z,108.53
2019-03-30T20:05:28.041Z,105.40
2019-03-30T20:08:11.211Z,114.00
2019-03-30T20:10:26.797Z,104.07
2019-03-30T20:12:55.051Z,117.80
2019-03-30T20:15:23.930Z,102.37
2019-03-30T20:17:52.281Z,110.10
2019-03-30T20:20:20.514Z,118.60
2019-03-30T20:22:49.821Z,119.97
2019-03-30T20:25:18.090Z,113.57
2019-03-30T20:27:46.347Z,104.87
2019-03-30T20:30:24.413Z,103.80
2019-03-30T20:32:52.343Z,99.17
2019-03-30T20:35:20.614Z,87.80
2019-03-30T20:37:48.892Z,100.07
2019-03-30T20:40:19.867Z,113.80
2019-03-30T20:42:51.274Z,99.70
2019-03-30T20:45:19.564Z,123.27
2019-03-30T20:47:47.830Z,124.80
2019-03-30T20:53:21.613Z,129.00
2019-03-30T20:55:53.486Z,117.23
2019-03-30T20:58:21.935Z,112.60
2019-03-30T21:00:50.491Z,121.03
2019-03-30T21:03:18.750Z,121.63
2019-03-30T21:05:47.484Z,111.50
2019-03-30T21:08:15.778Z,128.73
2019-03-30T21:10:44.074Z,128.37
2019-03-30T21:13:12.358Z,129.70
2019-03-30T21:15:58.594Z,125.90
2019-03-30T21:18:29.422Z,133.83
2019-03-30T21:21:03.197Z,120.53
2019-03-30T21:23:40.509Z,138.30
2019-03-30T21:26:11.472Z,135.43
2019-03-30T21:28:39.772Z,142.10
2019-03-30T21:31:08.117Z,140.63
2019-03-30T21:33:36.422Z,128.77
2019-03-30T21:36:05.283Z,147.60
2019-03-30T21:38:33.543Z,151.40
2019-03-30T21:41:01.787Z,161.60
2019-03-30T21:43:30.095Z,117.03
2019-03-30T21:46:00.721Z,157.10
2019-03-30T21:48:29.032Z,130.77
2019-03-30T21:51:02.405Z,145.67
2019-03-30T21:53:30.691Z,137.10
2019-03-30T21:55:58.941Z,145.27
2019-03-30T21:58:27.327Z,153.57
2019-03-30T22:00:55.632Z,144.40
2019-03-30T22:03:26.586Z,162.07
2019-03-30T22:05:57.505Z,150.77
2019-03-30T22:08:27.043Z,129.63
2019-03-30T22:11:31.356Z,131.83
2019-03-30T22:14:12.378Z,135.37
2019-03-30T22:16:40.957Z,142.10
2019-03-30T22:19:09.179Z,150.53
2019-03-30T22:21:37.735Z,150.73
2019-03-30T22:24:06.236Z,144.20
2019-03-30T22:26:34.509Z,151.47
2019-03-30T22:29:02.771Z,132.20
2019-03-30T22:31:36.085Z,144.90
2019-03-30T22:34:04.628Z,156.67
2019-03-30T22:36:36.502Z,145.23
2019-03-30T22:39:06.113Z,149.47
2019-03-30T22:41:34.398Z,130.90
2019-03-30T22:44:02.915Z,135.67
2019-03-30T22:46:31.184Z,135.63
2019-03-30T22:48:59.498Z,150.37
2019-03-30T22:51:27.745Z,142.67
2019-03-30T22:53:56.208Z,135.23
2019-03-30T22:56:24.740Z,148.10
2019-03-30T22:58:53.332Z,142.30
2019-03-30T23:01:23.033Z,151.97
2019-03-30T23:03:51.279Z,162.00
2019-03-30T23:06:19.522Z,141.70
2019-03-30T23:08:47.822Z,156.53
2019-03-30T23:11:16.086Z,148.03
2019-03-30T23:13:44.335Z,140.77
2019-03-30T23:16:12.697Z,175.43
2019-03-30T23:18:45.022Z,140.30
2019-03-30T23:21:11.511Z,160.37
2019-03-30T23:23:39.780Z,126.50
2019-03-30T23:26:08.046Z,154.57
2019-03-30T23:28:36.338Z,156.30
2019-03-30T23:31:04.707Z,125.23
2019-03-30T23:33:32.937Z,136.50
2019-03-30T23:36:01.183Z,128.70
2019-03-30T23:38:29.550Z,128.57
2019-03-30T23:40:57.798Z,123.67
2019-03-30T23:43:26.408Z,134.73
2019-03-30T23:45:55.008Z,122.73
2019-03-30T23:48:23.255Z,112.67
2019-03-30T23:50:53.143Z,120.87
2019-03-30T23:53:21.484Z,114.07
2019-03-30T23:55:49.723Z,105.03
2019-03-30T23:58:18.040Z,99.43
